sensor_id;sensor_type;location;lat;lon;timestamp;temperature;humidity
13440;DHT22;6792;57.698;11.946;2023-05-29T00:00:48;18.90;46.50
13440;DHT22;6792;57.698;11.946;2023-05-29T00:03:20;18.90;46.60
13440;DHT22;6792;57.698;11.946;2023-05-29T00:08:18;18.90;45.90
13440;DHT22;6792;57.698;11.946;2023-05-29T00:10:47;18.90;46.50
13440;DHT22;6792;57.698;11.946;2023-05-29T00:13:17;18.80;45.90
13440;DHT22;6792;57.698;11.946;2023-05-29T00:15:49;18.80;45.90
13440;DHT22;6792;57.698;11.946;2023-05-29T00:18:19;18.80;46.40
13440;DHT22;6792;57.698;11.946;2023-05-29T00:20:49;18.80;45.90
13440;DHT22;6792;57.698;11.946;2023-05-29T00:23:18;18.70;46.40
13440;DHT22;6792;57.698;11.946;2023-05-29T00:25:48;18.70;46.30
13440;DHT22;6792;57.698;11.946;2023-05-29T00:28:20;18.70;46.30
13440;DHT22;6792;57.698;11.946;2023-05-29T00:30:49;18.70;46.10
13440;DHT22;6792;57.698;11.946;2023-05-29T00:33:19;18.70;45.90
13440;DHT22;6792;57.698;11.946;2023-05-29T00:35:48;18.70;45.80
13440;DHT22;6792;57.698;11.946;2023-05-29T00:38:18;18.70;45.70
13440;DHT22;6792;57.698;11.946;2023-05-29T00:40:48;18.60;45.60
13440;DHT22;6792;57.698;11.946;2023-05-29T00:43:17;18.60;45.50
13440;DHT22;6792;57.698;11.946;2023-05-29T00:45:51;18.60;45.50
13440;DHT22;6792;57.698;11.946;2023-05-29T00:48:20;18.50;44.90
13440;DHT22;6792;57.698;11.946;2023-05-29T00:50:50;18.50;45.30
13440;DHT22;6792;57.698;11.946;2023-05-29T00:53:20;18.50;45.20
13440;DHT22;6792;57.698;11.946;2023-05-29T00:55:49;18.40;45.20
13440;DHT22;6792;57.698;11.946;2023-05-29T00:58:19;18.40;45.10
13440;DHT22;6792;57.698;11.946;2023-05-29T01:00:49;18.40;45.00
13440;DHT22;6792;57.698;11.946;2023-05-29T01:03:21;18.40;44.40
13440;DHT22;6792;57.698;11.946;2023-05-29T01:05:51;18.30;44.80
13440;DHT22;6792;57.698;11.946;2023-05-29T01:08:21;18.30;44.60
13440;DHT22;6792;57.698;11.946;2023-05-29T01:13:32;18.20;43.70
13440;DHT22;6792;57.698;11.946;2023-05-29T01:16:08;18.20;44.30
13440;DHT22;6792;57.698;11.946;2023-05-29T01:18:45;18.20;43.60
13440;DHT22;6792;57.698;11.946;2023-05-29T01:21:18;18.20;43.60
13440;DHT22;6792;57.698;11.946;2023-05-29T01:24:01;18.10;44.00
13440;DHT22;6792;57.698;11.946;2023-05-29T01:29:32;18.10;43.30
13440;DHT22;6792;57.698;11.946;2023-05-29T01:32:01;18.00;43.30
13440;DHT22;6792;57.698;11.946;2023-05-29T01:36:59;18.10;43.20
13440;DHT22;6792;57.698;11.946;2023-05-29T01:39:29;18.00;43.70
13440;DHT22;6792;57.698;11.946;2023-05-29T01:41:59;18.00;43.70
13440;DHT22;6792;57.698;11.946;2023-05-29T01:44:29;18.00;43.70
13440;DHT22;6792;57.698;11.946;2023-05-29T01:46:59;18.00;43.20
13440;DHT22;6792;57.698;11.946;2023-05-29T01:49:30;18.00;43.70
13440;DHT22;6792;57.698;11.946;2023-05-29T01:52:04;19.10;43.60
13440;DHT22;6792;57.698;11.946;2023-05-29T01:54:33;17.90;43.00
13440;DHT22;6792;57.698;11.946;2023-05-29T01:57:04;17.90;43.60
13440;DHT22;6792;57.698;11.946;2023-05-29T01:59:35;17.90;43.40
13440;DHT22;6792;57.698;11.946;2023-05-29T02:02:09;17.90;43.40
13440;DHT22;6792;57.698;11.946;2023-05-29T02:04:39;17.90;43.50
13440;DHT22;6792;57.698;11.946;2023-05-29T02:07:08;17.80;42.90
13440;DHT22;6792;57.698;11.946;2023-05-29T02:09:39;17.80;42.90
13440;DHT22;6792;57.698;11.946;2023-05-29T02:12:09;17.80;43.40
13440;DHT22;6792;57.698;11.946;2023-05-29T02:14:38;17.80;43.40
13440;DHT22;6792;57.698;11.946;2023-05-29T02:17:09;17.80;43.30
13440;DHT22;6792;57.698;11.946;2023-05-29T02:19:38;17.80;43.30
13440;DHT22;6792;57.698;11.946;2023-05-29T02:22:08;17.80;42.70
13440;DHT22;6792;57.698;11.946;2023-05-29T02:24:37;17.80;43.30
13440;DHT22;6792;57.698;11.946;2023-05-29T02:27:07;17.70;43.30
13440;DHT22;6792;57.698;11.946;2023-05-29T02:29:37;17.70;42.70
13440;DHT22;6792;57.698;11.946;2023-05-29T02:32:06;17.70;42.70
13440;DHT22;6792;57.698;11.946;2023-05-29T02:34:36;17.70;43.30
13440;DHT22;6792;57.698;11.946;2023-05-29T02:37:05;17.70;43.30
13440;DHT22;6792;57.698;11.946;2023-05-29T02:39:36;17.60;42.70
13440;DHT22;6792;57.698;11.946;2023-05-29T02:42:06;17.60;43.30
13440;DHT22;6792;57.698;11.946;2023-05-29T02:44:35;17.60;43.20
13440;DHT22;6792;57.698;11.946;2023-05-29T02:47:05;17.60;43.20
13440;DHT22;6792;57.698;11.946;2023-05-29T02:49:34;17.60;43.20
13440;DHT22;6792;57.698;11.946;2023-05-29T02:52:04;17.60;43.20
13440;DHT22;6792;57.698;11.946;2023-05-29T02:54:34;17.50;43.10
13440;DHT22;6792;57.698;11.946;2023-05-29T02:57:03;17.60;43.70
13440;DHT22;6792;57.698;11.946;2023-05-29T02:59:33;17.50;42.50
13440;DHT22;6792;57.698;11.946;2023-05-29T03:02:05;17.50;43.00
13440;DHT22;6792;57.698;11.946;2023-05-29T03:04:35;17.50;42.50
13440;DHT22;6792;57.698;11.946;2023-05-29T03:07:04;17.50;42.90
13440;DHT22;6792;57.698;11.946;2023-05-29T03:09:40;17.50;42.80
13440;DHT22;6792;57.698;11.946;2023-05-29T03:12:10;17.50;42.10
13440;DHT22;6792;57.698;11.946;2023-05-29T03:14:39;17.50;42.60
13440;DHT22;6792;57.698;11.946;2023-05-29T03:17:09;17.50;42.40
13440;DHT22;6792;57.698;11.946;2023-05-29T03:19:38;17.50;42.30
13440;DHT22;6792;57.698;11.946;2023-05-29T03:22:07;17.50;42.20
13440;DHT22;6792;57.698;11.946;2023-05-29T03:24:37;17.50;42.10
13440;DHT22;6792;57.698;11.946;2023-05-29T03:27:06;17.40;42.10
13440;DHT22;6792;57.698;11.946;2023-05-29T03:29:37;17.40;41.60
13440;DHT22;6792;57.698;11.946;2023-05-29T03:32:07;17.40;42.20
13440;DHT22;6792;57.698;11.946;2023-05-29T03:34:37;17.40;42.20
13440;DHT22;6792;57.698;11.946;2023-05-29T03:37:07;17.40;42.20
13440;DHT22;6792;57.698;11.946;2023-05-29T03:39:37;17.40;42.20
13440;DHT22;6792;57.698;11.946;2023-05-29T03:42:07;17.40;42.20
13440;DHT22;6792;57.698;11.946;2023-05-29T03:44:36;17.40;41.70
13440;DHT22;6792;57.698;11.946;2023-05-29T03:47:06;17.40;42.20
13440;DHT22;6792;57.698;11.946;2023-05-29T03:49:36;17.40;42.30
13440;DHT22;6792;57.698;11.946;2023-05-29T03:52:06;17.40;42.30
13440;DHT22;6792;57.698;11.946;2023-05-29T03:54:36;17.40;42.40
13440;DHT22;6792;57.698;11.946;2023-05-29T03:57:05;17.40;42.50
13440;DHT22;6792;57.698;11.946;2023-05-29T03:59:37;17.40;42.60
13440;DHT22;6792;57.698;11.946;2023-05-29T04:02:06;17.30;42.50
13440;DHT22;6792;57.698;11.946;2023-05-29T04:04:35;17.30;42.60
13440;DHT22;6792;57.698;11.946;2023-05-29T04:07:05;17.30;42.60
13440;DHT22;6792;57.698;11.946;2023-05-29T04:09:35;17.30;42.60
13440;DHT22;6792;57.698;11.946;2023-05-29T04:12:05;17.30;43.30
13440;DHT22;6792;57.698;11.946;2023-05-29T04:14:35;17.30;42.20
13440;DHT22;6792;57.698;11.946;2023-05-29T04:17:04;17.30;42.80
13440;DHT22;6792;57.698;11.946;2023-05-29T04:19:34;17.40;42.80
13440;DHT22;6792;57.698;11.946;2023-05-29T04:22:03;17.40;42.80
13440;DHT22;6792;57.698;11.946;2023-05-29T04:24:32;17.40;42.80
13440;DHT22;6792;57.698;11.946;2023-05-29T04:27:03;17.30;42.20
13440;DHT22;6792;57.698;11.946;2023-05-29T04:29:33;17.40;42.70
13440;DHT22;6792;57.698;11.946;2023-05-29T04:32:03;17.40;42.70
13440;DHT22;6792;57.698;11.946;2023-05-29T04:34:32;17.40;42.70
13440;DHT22;6792;57.698;11.946;2023-05-29T04:37:02;17.40;42.60
13440;DHT22;6792;57.698;11.946;2023-05-29T04:39:32;17.40;42.60
13440;DHT22;6792;57.698;11.946;2023-05-29T04:42:01;17.50;42.60
13440;DHT22;6792;57.698;11.946;2023-05-29T04:44:30;17.40;42.50
13440;DHT22;6792;57.698;11.946;2023-05-29T04:47:00;17.50;42.60
13440;DHT22;6792;57.698;11.946;2023-05-29T04:49:31;17.50;42.60
13440;DHT22;6792;57.698;11.946;2023-05-29T04:52:01;17.50;42.60
13440;DHT22;6792;57.698;11.946;2023-05-29T04:54:30;17.50;42.60
13440;DHT22;6792;57.698;11.946;2023-05-29T04:57:01;17.60;42.70
13440;DHT22;6792;57.698;11.946;2023-05-29T04:59:31;17.60;42.70
13440;DHT22;6792;57.698;11.946;2023-05-29T05:02:00;17.60;42.60
13440;DHT22;6792;57.698;11.946;2023-05-29T05:04:30;17.60;42.00
13440;DHT22;6792;57.698;11.946;2023-05-29T05:07:00;17.60;41.90
13440;DHT22;6792;57.698;11.946;2023-05-29T05:09:31;17.70;41.90
13440;DHT22;6792;57.698;11.946;2023-05-29T05:12:00;17.70;42.30
13440;DHT22;6792;57.698;11.946;2023-05-29T05:14:30;17.70;41.60
13440;DHT22;6792;57.698;11.946;2023-05-29T05:16:59;17.80;42.10
13440;DHT22;6792;57.698;11.946;2023-05-29T05:19:29;17.80;41.40
13440;DHT22;6792;57.698;11.946;2023-05-29T05:21:59;17.90;41.30
13440;DHT22;6792;57.698;11.946;2023-05-29T05:24:29;17.90;41.10
13440;DHT22;6792;57.698;11.946;2023-05-29T05:27:00;17.90;41.50
13440;DHT22;6792;57.698;11.946;2023-05-29T05:29:29;17.80;41.40
13440;DHT22;6792;57.698;11.946;2023-05-29T05:31:58;17.90;41.40
13440;DHT22;6792;57.698;11.946;2023-05-29T05:34:28;17.90;41.30
13440;DHT22;6792;57.698;11.946;2023-05-29T05:36:57;18.00;41.20
13440;DHT22;6792;57.698;11.946;2023-05-29T05:39:27;18.00;41.10
13440;DHT22;6792;57.698;11.946;2023-05-29T05:41:56;18.10;41.10
13440;DHT22;6792;57.698;11.946;2023-05-29T05:44:25;18.10;41.00
13440;DHT22;6792;57.698;11.946;2023-05-29T05:46:55;18.20;40.90
13440;DHT22;6792;57.698;11.946;2023-05-29T05:49:24;18.20;40.80
13440;DHT22;6792;57.698;11.946;2023-05-29T05:51:53;18.20;40.80
13440;DHT22;6792;57.698;11.946;2023-05-29T05:57:01;18.30;40.60
13440;DHT22;6792;57.698;11.946;2023-05-29T05:59:30;18.40;40.60
13440;DHT22;6792;57.698;11.946;2023-05-29T06:02:00;18.40;40.40
13440;DHT22;6792;57.698;11.946;2023-05-29T06:04:29;18.50;40.30
13440;DHT22;6792;57.698;11.946;2023-05-29T06:07:17;18.60;39.70
13440;DHT22;6792;57.698;11.946;2023-05-29T06:09:48;18.60;40.10
13440;DHT22;6792;57.698;11.946;2023-05-29T06:12:17;18.70;40.10
13440;DHT22;6792;57.698;11.946;2023-05-29T06:14:50;18.70;39.90
13440;DHT22;6792;57.698;11.946;2023-05-29T06:17:19;18.80;39.80
13440;DHT22;6792;57.698;11.946;2023-05-29T06:19:49;18.80;39.60
13440;DHT22;6792;57.698;11.946;2023-05-29T06:22:19;18.90;39.60
13440;DHT22;6792;57.698;11.946;2023-05-29T06:24:49;19.00;39.50
13440;DHT22;6792;57.698;11.946;2023-05-29T06:27:18;19.00;39.50
13440;DHT22;6792;57.698;11.946;2023-05-29T06:29:49;19.10;39.40
13440;DHT22;6792;57.698;11.946;2023-05-29T06:32:18;19.10;38.70
13440;DHT22;6792;57.698;11.946;2023-05-29T06:34:48;19.20;39.10
13440;DHT22;6792;57.698;11.946;2023-05-29T06:37:21;19.30;39.10
13440;DHT22;6792;57.698;11.946;2023-05-29T06:39:50;19.40;38.50
13440;DHT22;6792;57.698;11.946;2023-05-29T06:42:20;19.50;39.00
13440;DHT22;6792;57.698;11.946;2023-05-29T06:44:49;19.70;38.80
13440;DHT22;6792;57.698;11.946;2023-05-29T06:47:20;19.80;38.60
13440;DHT22;6792;57.698;11.946;2023-05-29T06:49:49;19.80;38.30
13440;DHT22;6792;57.698;11.946;2023-05-29T06:52:18;19.90;38.20
13440;DHT22;6792;57.698;11.946;2023-05-29T06:54:48;20.00;38.00
13440;DHT22;6792;57.698;11.946;2023-05-29T06:57:20;20.00;38.00
13440;DHT22;6792;57.698;11.946;2023-05-29T06:59:50;20.10;37.40
13440;DHT22;6792;57.698;11.946;2023-05-29T07:02:19;20.20;37.80
13440;DHT22;6792;57.698;11.946;2023-05-29T07:04:48;20.20;37.80
13440;DHT22;6792;57.698;11.946;2023-05-29T07:07:18;20.30;37.30
13440;DHT22;6792;57.698;11.946;2023-05-29T07:09:47;20.30;37.30
13440;DHT22;6792;57.698;11.946;2023-05-29T07:12:17;20.40;37.10
13440;DHT22;6792;57.698;11.946;2023-05-29T07:14:53;20.50;37.00
13440;DHT22;6792;57.698;11.946;2023-05-29T07:17:22;20.50;36.40
13440;DHT22;6792;57.698;11.946;2023-05-29T07:19:51;20.50;36.80
13440;DHT22;6792;57.698;11.946;2023-05-29T07:22:22;20.60;36.20
13440;DHT22;6792;57.698;11.946;2023-05-29T07:24:51;20.60;36.10
13440;DHT22;6792;57.698;11.946;2023-05-29T07:27:20;20.60;36.00
13440;DHT22;6792;57.698;11.946;2023-05-29T07:32:28;20.60;35.60
13440;DHT22;6792;57.698;11.946;2023-05-29T07:34:58;20.60;36.20
13440;DHT22;6792;57.698;11.946;2023-05-29T07:37:27;20.60;36.10
13440;DHT22;6792;57.698;11.946;2023-05-29T07:39:58;20.60;35.30
13440;DHT22;6792;57.698;11.946;2023-05-29T07:42:27;20.70;35.80
13440;DHT22;6792;57.698;11.946;2023-05-29T07:44:56;20.70;35.60
13440;DHT22;6792;57.698;11.946;2023-05-29T07:47:26;20.70;35.40
13440;DHT22;6792;57.698;11.946;2023-05-29T07:49:55;20.80;35.30
13440;DHT22;6792;57.698;11.946;2023-05-29T07:52:24;20.80;34.60
13440;DHT22;6792;57.698;11.946;2023-05-29T07:54:54;20.80;34.70
13440;DHT22;6792;57.698;11.946;2023-05-29T07:57:23;20.90;35.30
13440;DHT22;6792;57.698;11.946;2023-05-29T07:59:53;21.00;35.30
13440;DHT22;6792;57.698;11.946;2023-05-29T08:02:22;21.00;35.40
13440;DHT22;6792;57.698;11.946;2023-05-29T08:04:52;21.10;35.00
13440;DHT22;6792;57.698;11.946;2023-05-29T08:07:21;21.10;34.70
13440;DHT22;6792;57.698;11.946;2023-05-29T08:09:51;21.10;34.50
13440;DHT22;6792;57.698;11.946;2023-05-29T08:12:26;21.20;33.70
13440;DHT22;6792;57.698;11.946;2023-05-29T08:14:56;21.20;34.20
13440;DHT22;6792;57.698;11.946;2023-05-29T08:17:25;21.30;34.10
13440;DHT22;6792;57.698;11.946;2023-05-29T08:19:55;21.40;34.10
13440;DHT22;6792;57.698;11.946;2023-05-29T08:22:28;21.40;34.00
13440;DHT22;6792;57.698;11.946;2023-05-29T08:24:58;21.40;34.10
13440;DHT22;6792;57.698;11.946;2023-05-29T08:27:28;21.50;34.30
13440;DHT22;6792;57.698;11.946;2023-05-29T08:29:57;21.50;34.40
13440;DHT22;6792;57.698;11.946;2023-05-29T08:32:27;21.50;34.50
13440;DHT22;6792;57.698;11.946;2023-05-29T08:34:58;21.60;34.50
13440;DHT22;6792;57.698;11.946;2023-05-29T08:37:28;21.60;34.50
13440;DHT22;6792;57.698;11.946;2023-05-29T08:39:57;21.60;34.50
13440;DHT22;6792;57.698;11.946;2023-05-29T08:42:29;21.60;34.40
13440;DHT22;6792;57.698;11.946;2023-05-29T08:45:06;21.70;34.40
13440;DHT22;6792;57.698;11.946;2023-05-29T08:47:37;20.40;33.20
13440;DHT22;6792;57.698;11.946;2023-05-29T08:50:11;21.70;34.40
13440;DHT22;6792;57.698;11.946;2023-05-29T08:52:41;21.80;34.50
13440;DHT22;6792;57.698;11.946;2023-05-29T08:55:15;21.80;34.50
13440;DHT22;6792;57.698;11.946;2023-05-29T08:57:45;21.80;34.50
13440;DHT22;6792;57.698;11.946;2023-05-29T09:00:16;21.90;34.50
13440;DHT22;6792;57.698;11.946;2023-05-29T09:02:46;21.90;34.40
13440;DHT22;6792;57.698;11.946;2023-05-29T09:05:15;21.90;34.20
13440;DHT22;6792;57.698;11.946;2023-05-29T09:07:46;21.90;34.10
13440;DHT22;6792;57.698;11.946;2023-05-29T09:10:21;21.90;34.10
13440;DHT22;6792;57.698;11.946;2023-05-29T09:12:51;21.90;34.20
13440;DHT22;6792;57.698;11.946;2023-05-29T09:15:21;21.90;34.20
13440;DHT22;6792;57.698;11.946;2023-05-29T09:17:56;21.90;34.20
13440;DHT22;6792;57.698;11.946;2023-05-29T09:20:26;21.90;33.50
13440;DHT22;6792;57.698;11.946;2023-05-29T09:22:57;21.90;34.20
13440;DHT22;6792;57.698;11.946;2023-05-29T09:25:27;21.80;33.80
13440;DHT22;6792;57.698;11.946;2023-05-29T09:27:59;21.80;34.60
13440;DHT22;6792;57.698;11.946;2023-05-29T09:30:35;21.90;34.60
13440;DHT22;6792;57.698;11.946;2023-05-29T09:33:07;21.80;34.60
13440;DHT22;6792;57.698;11.946;2023-05-29T09:35:38;21.80;34.50
13440;DHT22;6792;57.698;11.946;2023-05-29T09:38:09;21.80;34.20
13440;DHT22;6792;57.698;11.946;2023-05-29T09:40:40;21.80;33.70
13440;DHT22;6792;57.698;11.946;2023-05-29T09:43:11;21.80;33.40
13440;DHT22;6792;57.698;11.946;2023-05-29T09:45:57;21.80;33.10
13440;DHT22;6792;57.698;11.946;2023-05-29T09:48:27;21.90;32.10
13440;DHT22;6792;57.698;11.946;2023-05-29T09:50:57;21.90;32.00
13440;DHT22;6792;57.698;11.946;2023-05-29T09:53:28;21.90;32.60
13440;DHT22;6792;57.698;11.946;2023-05-29T09:55:58;21.90;32.60
13440;DHT22;6792;57.698;11.946;2023-05-29T09:58:28;21.90;32.70
13440;DHT22;6792;57.698;11.946;2023-05-29T10:00:57;21.90;31.80
13440;DHT22;6792;57.698;11.946;2023-05-29T10:03:27;21.90;32.40
13440;DHT22;6792;57.698;11.946;2023-05-29T10:05:58;21.90;32.30
13440;DHT22;6792;57.698;11.946;2023-05-29T10:08:29;21.90;32.30
13440;DHT22;6792;57.698;11.946;2023-05-29T10:11:03;21.90;32.20
13440;DHT22;6792;57.698;11.946;2023-05-29T10:13:36;21.90;32.30
13440;DHT22;6792;57.698;11.946;2023-05-29T10:16:08;21.90;32.90
13440;DHT22;6792;57.698;11.946;2023-05-29T10:18:42;21.90;31.70
13440;DHT22;6792;57.698;11.946;2023-05-29T10:21:12;21.90;32.30
13440;DHT22;6792;57.698;11.946;2023-05-29T10:23:45;21.90;32.30
13440;DHT22;6792;57.698;11.946;2023-05-29T10:26:18;22.00;31.70
13440;DHT22;6792;57.698;11.946;2023-05-29T10:28:52;22.00;32.10
13440;DHT22;6792;57.698;11.946;2023-05-29T10:31:24;22.00;32.00
13440;DHT22;6792;57.698;11.946;2023-05-29T10:34:02;22.00;32.40
13440;DHT22;6792;57.698;11.946;2023-05-29T10:36:34;22.10;31.70
13440;DHT22;6792;57.698;11.946;2023-05-29T10:39:05;22.10;31.00
13440;DHT22;6792;57.698;11.946;2023-05-29T10:41:35;22.10;30.90
13440;DHT22;6792;57.698;11.946;2023-05-29T10:44:44;22.20;31.50
13440;DHT22;6792;57.698;11.946;2023-05-29T10:47:23;22.20;31.20
13440;DHT22;6792;57.698;11.946;2023-05-29T10:49:52;22.30;31.20
13440;DHT22;6792;57.698;11.946;2023-05-29T10:52:25;22.30;31.10
13440;DHT22;6792;57.698;11.946;2023-05-29T10:54:55;22.30;31.10
13440;DHT22;6792;57.698;11.946;2023-05-29T10:57:25;22.30;30.90
13440;DHT22;6792;57.698;11.946;2023-05-29T11:00:03;22.40;30.90
13440;DHT22;6792;57.698;11.946;2023-05-29T11:02:38;22.40;30.40
13440;DHT22;6792;57.698;11.946;2023-05-29T11:05:20;22.50;31.10
13440;DHT22;6792;57.698;11.946;2023-05-29T11:07:55;22.50;30.90
13440;DHT22;6792;57.698;11.946;2023-05-29T11:10:56;22.60;30.90
13440;DHT22;6792;57.698;11.946;2023-05-29T11:13:27;22.60;30.90
13440;DHT22;6792;57.698;11.946;2023-05-29T11:16:14;22.60;30.90
13440;DHT22;6792;57.698;11.946;2023-05-29T11:18:46;22.70;30.40
13440;DHT22;6792;57.698;11.946;2023-05-29T11:21:33;22.70;31.10
13440;DHT22;6792;57.698;11.946;2023-05-29T11:24:03;22.70;31.20
13440;DHT22;6792;57.698;11.946;2023-05-29T11:26:36;22.70;31.70
13440;DHT22;6792;57.698;11.946;2023-05-29T11:29:06;22.70;31.10
13440;DHT22;6792;57.698;11.946;2023-05-29T11:31:38;22.80;31.30
13440;DHT22;6792;57.698;11.946;2023-05-29T11:34:13;22.80;30.70
13440;DHT22;6792;57.698;11.946;2023-05-29T11:36:42;22.90;31.40
13440;DHT22;6792;57.698;11.946;2023-05-29T11:39:12;22.90;31.20
13440;DHT22;6792;57.698;11.946;2023-05-29T11:41:41;22.90;31.20
13440;DHT22;6792;57.698;11.946;2023-05-29T11:44:13;22.90;31.20
13440;DHT22;6792;57.698;11.946;2023-05-29T11:46:43;22.90;31.30
13440;DHT22;6792;57.698;11.946;2023-05-29T11:49:12;22.90;31.30
13440;DHT22;6792;57.698;11.946;2023-05-29T11:51:43;22.90;30.80
13440;DHT22;6792;57.698;11.946;2023-05-29T11:54:16;23.00;31.50
13440;DHT22;6792;57.698;11.946;2023-05-29T11:56:47;23.00;30.90
13440;DHT22;6792;57.698;11.946;2023-05-29T11:59:19;23.10;31.50
13440;DHT22;6792;57.698;11.946;2023-05-29T12:01:49;23.10;31.40
13440;DHT22;6792;57.698;11.946;2023-05-29T12:04:18;23.00;31.20
13440;DHT22;6792;57.698;11.946;2023-05-29T12:06:48;23.00;31.30
13440;DHT22;6792;57.698;11.946;2023-05-29T12:09:27;23.00;31.40
13440;DHT22;6792;57.698;11.946;2023-05-29T12:12:03;23.00;31.30
13440;DHT22;6792;57.698;11.946;2023-05-29T12:14:34;22.90;31.20
13440;DHT22;6792;57.698;11.946;2023-05-29T12:17:03;22.90;31.30
13440;DHT22;6792;57.698;11.946;2023-05-29T12:19:33;22.80;30.80
13440;DHT22;6792;57.698;11.946;2023-05-29T12:22:03;22.80;31.40
13440;DHT22;6792;57.698;11.946;2023-05-29T12:24:32;22.80;31.50
13440;DHT22;6792;57.698;11.946;2023-05-29T12:27:06;22.90;31.50
13440;DHT22;6792;57.698;11.946;2023-05-29T12:29:36;22.90;31.50
13440;DHT22;6792;57.698;11.946;2023-05-29T12:32:09;22.90;31.50
13440;DHT22;6792;57.698;11.946;2023-05-29T12:34:39;23.00;31.50
13440;DHT22;6792;57.698;11.946;2023-05-29T12:37:10;23.00;31.50
13440;DHT22;6792;57.698;11.946;2023-05-29T12:39:41;23.00;31.00
13440;DHT22;6792;57.698;11.946;2023-05-29T12:42:12;23.00;31.50
13440;DHT22;6792;57.698;11.946;2023-05-29T12:44:42;23.10;31.40
13440;DHT22;6792;57.698;11.946;2023-05-29T12:47:14;23.10;31.40
13440;DHT22;6792;57.698;11.946;2023-05-29T12:49:44;23.20;31.50
13440;DHT22;6792;57.698;11.946;2023-05-29T12:52:21;23.40;31.40
13440;DHT22;6792;57.698;11.946;2023-05-29T12:54:51;23.50;30.70
13440;DHT22;6792;57.698;11.946;2023-05-29T12:57:21;23.60;31.10
13440;DHT22;6792;57.698;11.946;2023-05-29T12:59:50;23.70;31.00
13440;DHT22;6792;57.698;11.946;2023-05-29T13:02:20;23.70;30.40
13440;DHT22;6792;57.698;11.946;2023-05-29T13:04:49;23.70;30.40
13440;DHT22;6792;57.698;11.946;2023-05-29T13:07:21;23.70;31.00
13440;DHT22;6792;57.698;11.946;2023-05-29T13:09:50;23.80;30.50
13440;DHT22;6792;57.698;11.946;2023-05-29T13:12:23;23.80;31.00
13440;DHT22;6792;57.698;11.946;2023-05-29T13:14:52;23.70;30.90
13440;DHT22;6792;57.698;11.946;2023-05-29T13:17:23;23.80;30.40
13440;DHT22;6792;57.698;11.946;2023-05-29T13:19:53;23.70;30.10
13440;DHT22;6792;57.698;11.946;2023-05-29T13:22:22;23.80;30.70
13440;DHT22;6792;57.698;11.946;2023-05-29T13:24:55;23.80;30.80
13440;DHT22;6792;57.698;11.946;2023-05-29T13:27:25;23.80;30.90
13440;DHT22;6792;57.698;11.946;2023-05-29T13:29:55;23.70;30.00
13440;DHT22;6792;57.698;11.946;2023-05-29T13:32:24;23.70;30.50
13440;DHT22;6792;57.698;11.946;2023-05-29T13:34:54;23.80;30.50
13440;DHT22;6792;57.698;11.946;2023-05-29T13:37:23;23.80;30.20
13440;DHT22;6792;57.698;11.946;2023-05-29T13:39:55;23.80;30.70
13440;DHT22;6792;57.698;11.946;2023-05-29T13:42:24;23.80;30.00
13440;DHT22;6792;57.698;11.946;2023-05-29T13:44:56;23.80;30.00
13440;DHT22;6792;57.698;11.946;2023-05-29T13:47:26;23.90;29.60
13440;DHT22;6792;57.698;11.946;2023-05-29T13:49:56;24.00;29.50
13440;DHT22;6792;57.698;11.946;2023-05-29T13:52:26;24.20;30.00
13440;DHT22;6792;57.698;11.946;2023-05-29T13:54:55;24.50;30.00
13440;DHT22;6792;57.698;11.946;2023-05-29T13:57:26;24.80;29.40
13440;DHT22;6792;57.698;11.946;2023-05-29T13:59:55;25.00;29.20
13440;DHT22;6792;57.698;11.946;2023-05-29T14:02:25;25.40;29.60
13440;DHT22;6792;57.698;11.946;2023-05-29T14:04:55;25.60;29.40
13440;DHT22;6792;57.698;11.946;2023-05-29T14:07:24;25.80;29.10
13440;DHT22;6792;57.698;11.946;2023-05-29T14:09:54;25.80;28.90
13440;DHT22;6792;57.698;11.946;2023-05-29T14:12:23;25.90;28.80
13440;DHT22;6792;57.698;11.946;2023-05-29T14:14:53;25.80;28.50
13440;DHT22;6792;57.698;11.946;2023-05-29T14:17:22;25.70;28.40
13440;DHT22;6792;57.698;11.946;2023-05-29T14:19:53;25.60;28.40
13440;DHT22;6792;57.698;11.946;2023-05-29T14:22:23;25.50;28.60
13440;DHT22;6792;57.698;11.946;2023-05-29T14:24:53;25.40;28.70
13440;DHT22;6792;57.698;11.946;2023-05-29T14:27:23;25.20;28.30
13440;DHT22;6792;57.698;11.946;2023-05-29T14:29:52;25.10;29.00
13440;DHT22;6792;57.698;11.946;2023-05-29T14:32:22;25.00;29.00
13440;DHT22;6792;57.698;11.946;2023-05-29T14:34:51;24.90;29.10
13440;DHT22;6792;57.698;11.946;2023-05-29T14:37:21;24.70;29.20
13440;DHT22;6792;57.698;11.946;2023-05-29T14:39:50;24.60;29.30
13440;DHT22;6792;57.698;11.946;2023-05-29T14:42:19;24.50;29.40
13440;DHT22;6792;57.698;11.946;2023-05-29T14:44:49;24.40;29.50
13440;DHT22;6792;57.698;11.946;2023-05-29T14:47:18;24.20;29.50
13440;DHT22;6792;57.698;11.946;2023-05-29T14:49:49;24.10;29.50
13440;DHT22;6792;57.698;11.946;2023-05-29T14:52:18;24.00;29.00
13440;DHT22;6792;57.698;11.946;2023-05-29T14:54:48;24.00;29.50
13440;DHT22;6792;57.698;11.946;2023-05-29T14:57:20;23.90;29.60
13440;DHT22;6792;57.698;11.946;2023-05-29T14:59:49;23.90;29.20
13440;DHT22;6792;57.698;11.946;2023-05-29T15:02:19;23.80;29.30
13440;DHT22;6792;57.698;11.946;2023-05-29T15:04:49;23.90;29.80
13440;DHT22;6792;57.698;11.946;2023-05-29T15:07:19;23.80;29.90
13440;DHT22;6792;57.698;11.946;2023-05-29T15:09:48;23.70;29.60
13440;DHT22;6792;57.698;11.946;2023-05-29T15:12:18;23.70;30.00
13440;DHT22;6792;57.698;11.946;2023-05-29T15:14:48;23.60;30.00
13440;DHT22;6792;57.698;11.946;2023-05-29T15:17:20;23.60;30.00
13440;DHT22;6792;57.698;11.946;2023-05-29T15:19:49;23.50;29.70
13440;DHT22;6792;57.698;11.946;2023-05-29T15:22:23;23.40;30.10
13440;DHT22;6792;57.698;11.946;2023-05-29T15:25:00;23.40;29.80
13440;DHT22;6792;57.698;11.946;2023-05-29T15:27:35;23.30;30.10
13440;DHT22;6792;57.698;11.946;2023-05-29T15:30:16;23.20;29.60
13440;DHT22;6792;57.698;11.946;2023-05-29T15:32:53;23.20;29.70
13440;DHT22;6792;57.698;11.946;2023-05-29T15:35:44;23.10;29.80
13440;DHT22;6792;57.698;11.946;2023-05-29T15:38:19;23.00;29.90
13440;DHT22;6792;57.698;11.946;2023-05-29T15:40:51;23.00;30.50
13440;DHT22;6792;57.698;11.946;2023-05-29T15:43:21;22.40;30.00
13440;DHT22;6792;57.698;11.946;2023-05-29T15:45:50;22.80;30.90
13440;DHT22;6792;57.698;11.946;2023-05-29T15:48:19;22.70;31.20
13440;DHT22;6792;57.698;11.946;2023-05-29T15:50:51;22.60;31.50
13440;DHT22;6792;57.698;11.946;2023-05-29T15:53:23;22.60;31.70
13440;DHT22;6792;57.698;11.946;2023-05-29T15:55:55;22.50;31.90
13440;DHT22;6792;57.698;11.946;2023-05-29T15:58:33;22.40;32.10
13440;DHT22;6792;57.698;11.946;2023-05-29T16:01:03;22.30;32.20
13440;DHT22;6792;57.698;11.946;2023-05-29T16:03:38;22.30;32.30
13440;DHT22;6792;57.698;11.946;2023-05-29T16:06:13;22.20;31.90
13440;DHT22;6792;57.698;11.946;2023-05-29T16:08:58;22.20;32.10